sensor_id;sensor_type;location;lat;lon;timestamp;pressure;altitude;pressure_sealevel;temperature;humidity
50650;BME280;36621;60.058;30.346;2023-07-13T00:04:53;100336.81;;;18.46;46.01
50650;BME280;36621;60.058;30.346;2023-07-13T00:12:27;100326.22;;;18.48;45.38
50650;BME280;36621;60.058;30.346;2023-07-13T00:20:01;100321.88;;;18.38;47.99
50650;BME280;36621;60.058;30.346;2023-07-13T00:27:35;100340.91;;;18.40;47.39
50650;BME280;36621;60.058;30.346;2023-07-13T00:35:09;100320.28;;;18.37;46.78
50650;BME280;36621;60.058;30.346;2023-07-13T00:42:41;100291.00;;;18.15;46.73
50650;BME280;36621;60.058;30.346;2023-07-13T00:50:16;100298.09;;;18.25;46.62
50650;BME280;36621;60.058;30.346;2023-07-13T00:57:50;100309.03;;;18.21;47.52
50650;BME280;36621;60.058;30.346;2023-07-13T01:05:23;100297.63;;;18.23;48.02
50650;BME280;36621;60.058;30.346;2023-07-13T01:12:56;100291.94;;;18.19;47.60
50650;BME280;36621;60.058;30.346;2023-07-13T01:20:29;100252.94;;;18.00;47.35
50650;BME280;36621;60.058;30.346;2023-07-13T01:28:02;100293.56;;;18.20;48.27
50650;BME280;36621;60.058;30.346;2023-07-13T01:35:34;100283.88;;;18.14;48.72
50650;BME280;36621;60.058;30.346;2023-07-13T01:43:07;100285.72;;;18.01;48.73
50650;BME280;36621;60.058;30.346;2023-07-13T01:50:40;100277.50;;;17.93;49.02
50650;BME280;36621;60.058;30.346;2023-07-13T01:58:13;100281.41;;;17.92;48.94
50650;BME280;36621;60.058;30.346;2023-07-13T02:05:45;100279.25;;;17.97;49.34
50650;BME280;36621;60.058;30.346;2023-07-13T02:13:19;100272.38;;;18.03;49.16
50650;BME280;36621;60.058;30.346;2023-07-13T02:20:51;100268.53;;;17.96;49.88
50650;BME280;36621;60.058;30.346;2023-07-13T02:28:24;100235.53;;;17.69;49.64
50650;BME280;36621;60.058;30.346;2023-07-13T02:35:56;100271.97;;;17.93;49.84
50650;BME280;36621;60.058;30.346;2023-07-13T02:43:32;100221.66;;;17.48;46.84
50650;BME280;36621;60.058;30.346;2023-07-13T02:51:07;100248.59;;;17.51;45.91
50650;BME280;36621;60.058;30.346;2023-07-13T02:58:40;100289.06;;;17.39;47.19
50650;BME280;36621;60.058;30.346;2023-07-13T03:06:13;100279.69;;;17.31;46.96
50650;BME280;36621;60.058;30.346;2023-07-13T03:13:53;100280.16;;;17.33;47.60
50650;BME280;36621;60.058;30.346;2023-07-13T03:21:26;100293.78;;;17.38;49.34
50650;BME280;36621;60.058;30.346;2023-07-13T03:28:59;100289.31;;;17.54;47.75
50650;BME280;36621;60.058;30.346;2023-07-13T03:36:32;100286.97;;;17.74;46.94
50650;BME280;36621;60.058;30.346;2023-07-13T03:44:09;100260.72;;;17.98;45.99
50650;BME280;36621;60.058;30.346;2023-07-13T03:51:41;100226.84;;;18.52;44.89
50650;BME280;36621;60.058;30.346;2023-07-13T03:59:14;100253.22;;;19.04;42.34
50650;BME280;36621;60.058;30.346;2023-07-13T04:06:46;100263.44;;;19.49;38.81
50650;BME280;36621;60.058;30.346;2023-07-13T04:14:19;100260.34;;;19.75;38.62
50650;BME280;36621;60.058;30.346;2023-07-13T04:21:52;100216.19;;;19.79;35.75
50650;BME280;36621;60.058;30.346;2023-07-13T04:29:25;100233.88;;;20.56;35.07
50650;BME280;36621;60.058;30.346;2023-07-13T04:36:57;100259.06;;;20.91;33.53
50650;BME280;36621;60.058;30.346;2023-07-13T04:44:30;100246.22;;;21.15;33.52
50650;BME280;36621;60.058;30.346;2023-07-13T04:52:04;100229.00;;;22.25;31.40
50650;BME280;36621;60.058;30.346;2023-07-13T04:59:39;100207.00;;;25.89;26.36
50650;BME280;36621;60.058;30.346;2023-07-13T05:07:11;100244.34;;;23.63;29.50
50650;BME280;36621;60.058;30.346;2023-07-13T05:14:44;100201.00;;;22.53;31.72
50650;BME280;36621;60.058;30.346;2023-07-13T05:22:16;100239.91;;;23.85;30.33
50650;BME280;36621;60.058;30.346;2023-07-13T05:29:49;100214.22;;;22.79;31.59
50650;BME280;36621;60.058;30.346;2023-07-13T05:37:21;100245.69;;;21.89;33.87
50650;BME280;36621;60.058;30.346;2023-07-13T05:44:54;100250.19;;;21.62;35.57
50650;BME280;36621;60.058;30.346;2023-07-13T05:52:27;100248.84;;;21.40;36.48
50650;BME280;36621;60.058;30.346;2023-07-13T05:59:59;100241.47;;;21.47;37.12
50650;BME280;36621;60.058;30.346;2023-07-13T06:07:32;100253.41;;;21.48;37.00
50650;BME280;36621;60.058;30.346;2023-07-13T06:15:06;100249.38;;;21.29;37.61
50650;BME280;36621;60.058;30.346;2023-07-13T06:22:39;100239.97;;;21.18;38.24
50650;BME280;36621;60.058;30.346;2023-07-13T06:30:13;100243.38;;;21.59;38.66
50650;BME280;36621;60.058;30.346;2023-07-13T17:39:14;100302.50;;;21.44;43.33
50650;BME280;36621;60.058;30.346;2023-07-13T17:46:47;100328.59;;;21.11;44.35
50650;BME280;36621;60.058;30.346;2023-07-13T17:54:21;100296.63;;;20.73;44.83
50650;BME280;36621;60.058;30.346;2023-07-13T18:01:53;100357.09;;;20.95;44.66
50650;BME280;36621;60.058;30.346;2023-07-13T18:09:27;100292.63;;;20.33;44.45
50650;BME280;36621;60.058;30.346;2023-07-13T18:17:01;100360.41;;;20.48;44.81
50650;BME280;36621;60.058;30.346;2023-07-13T18:24:34;100364.34;;;20.35;44.88
50650;BME280;36621;60.058;30.346;2023-07-13T18:32:11;100363.44;;;20.30;45.04
50650;BME280;36621;60.058;30.346;2023-07-13T18:39:50;100362.75;;;19.97;45.34
50650;BME280;36621;60.058;30.346;2023-07-13T18:47:23;100331.03;;;19.48;46.05
50650;BME280;36621;60.058;30.346;2023-07-13T18:54:57;100368.44;;;19.54;45.98
50650;BME280;36621;60.058;30.346;2023-07-13T19:02:30;100345.22;;;19.13;46.78
50650;BME280;36621;60.058;30.346;2023-07-13T19:10:04;100373.34;;;19.36;47.05
50650;BME280;36621;60.058;30.346;2023-07-13T19:17:38;100378.28;;;19.31;46.86
50650;BME280;36621;60.058;30.346;2023-07-13T19:25:13;100263.25;;;18.54;46.95
50650;BME280;36621;60.058;30.346;2023-07-13T19:32:46;100382.88;;;19.26;47.00
50650;BME280;36621;60.058;30.346;2023-07-13T19:40:20;100393.13;;;19.26;46.55
50650;BME280;36621;60.058;30.346;2023-07-13T19:47:53;100388.72;;;19.13;47.57
50650;BME280;36621;60.058;30.346;2023-07-13T19:55:26;100395.50;;;19.15;47.59
50650;BME280;36621;60.058;30.346;2023-07-13T20:02:59;100334.59;;;18.61;47.38
50650;BME280;36621;60.058;30.346;2023-07-13T20:10:31;100394.50;;;18.99;47.24
50650;BME280;36621;60.058;30.346;2023-07-13T20:18:05;100398.63;;;18.92;48.20
50650;BME280;36621;60.058;30.346;2023-07-13T20:25:37;100409.69;;;18.92;48.24
50650;BME280;36621;60.058;30.346;2023-07-13T20:33:14;100399.66;;;18.88;47.52
50650;BME280;36621;60.058;30.346;2023-07-13T20:40:48;100408.44;;;19.44;45.67
50650;BME280;36621;60.058;30.346;2023-07-13T20:48:27;100415.91;;;18.89;48.34
50650;BME280;36621;60.058;30.346;2023-07-13T20:56:04;100339.00;;;18.32;48.35
50650;BME280;36621;60.058;30.346;2023-07-13T21:03:41;100375.41;;;18.34;48.91
50650;BME280;36621;60.058;30.346;2023-07-13T21:11:14;100361.50;;;18.21;49.27
50650;BME280;36621;60.058;30.346;2023-07-13T21:18:47;100415.16;;;18.50;48.59
50650;BME280;36621;60.058;30.346;2023-07-13T21:26:21;100420.25;;;18.39;48.97
50650;BME280;36621;60.058;30.346;2023-07-13T21:33:55;100332.75;;;17.84;48.24
50650;BME280;36621;60.058;30.346;2023-07-13T21:41:31;100336.31;;;17.84;48.77
50650;BME280;36621;60.058;30.346;2023-07-13T21:49:03;100418.84;;;18.25;49.33
50650;BME280;36621;60.058;30.346;2023-07-13T21:56:36;100408.47;;;18.21;49.76
50650;BME280;36621;60.058;30.346;2023-07-13T22:04:13;100419.16;;;18.32;49.59
50650;BME280;36621;60.058;30.346;2023-07-13T22:11:46;100343.44;;;17.85;50.14
50650;BME280;36621;60.058;30.346;2023-07-13T22:19:28;100357.25;;;17.85;50.33
50650;BME280;36621;60.058;30.346;2023-07-13T22:27:01;100391.66;;;18.05;51.23
50650;BME280;36621;60.058;30.346;2023-07-13T22:34:33;100382.25;;;17.98;51.38
50650;BME280;36621;60.058;30.346;2023-07-13T22:42:08;100402.66;;;18.14;50.98
50650;BME280;36621;60.058;30.346;2023-07-13T22:49:42;100348.88;;;17.64;51.70
50650;BME280;36621;60.058;30.346;2023-07-13T22:57:15;100400.16;;;17.92;51.62
50650;BME280;36621;60.058;30.346;2023-07-13T23:04:47;100392.19;;;17.81;52.15
50650;BME280;36621;60.058;30.346;2023-07-13T23:12:21;100390.91;;;17.79;53.18
50650;BME280;36621;60.058;30.346;2023-07-13T23:19:53;100391.88;;;17.74;52.82
50650;BME280;36621;60.058;30.346;2023-07-13T23:27:25;100391.59;;;17.67;53.49
50650;BME280;36621;60.058;30.346;2023-07-13T23:34:58;100378.16;;;17.48;54.12
50650;BME280;36621;60.058;30.346;2023-07-13T23:42:31;100373.28;;;17.45;54.58
50650;BME280;36621;60.058;30.346;2023-07-13T23:50:08;100363.44;;;17.26;54.80
50650;BME280;36621;60.058;30.346;2023-07-13T23:57:42;100377.56;;;17.16;55.16
